sensor_id;sensor_type;location;lat;lon;timestamp;pressure;altitude;pressure_sealevel;temperature;humidity
43147;BME280;28752;48.266;7.402;2023-08-31T00:00:09;98970.59;;;16.24;83.34
43147;BME280;28752;48.266;7.402;2023-08-31T00:02:35;98976.34;;;16.21;83.29
43147;BME280;28752;48.266;7.402;2023-08-31T00:05:01;98973.03;;;16.19;82.80
43147;BME280;28752;48.266;7.402;2023-08-31T00:07:26;98964.84;;;16.21;82.85
43147;BME280;28752;48.266;7.402;2023-08-31T00:09:52;98967.75;;;16.26;82.69
43147;BME280;28752;48.266;7.402;2023-08-31T00:12:17;98969.00;;;16.30;82.68
43147;BME280;28752;48.266;7.402;2023-08-31T00:14:42;98961.75;;;16.17;82.76
43147;BME280;28752;48.266;7.402;2023-08-31T00:17:08;98968.72;;;16.18;82.87
43147;BME280;28752;48.266;7.402;2023-08-31T00:19:33;98967.09;;;16.17;83.10
43147;BME280;28752;48.266;7.402;2023-08-31T00:21:59;98969.28;;;16.13;82.87
43147;BME280;28752;48.266;7.402;2023-08-31T00:24:24;98961.09;;;16.15;82.89
43147;BME280;28752;48.266;7.402;2023-08-31T00:26:55;98956.31;;;16.10;83.08
43147;BME280;28752;48.266;7.402;2023-08-31T00:29:20;98961.34;;;16.20;82.41
43147;BME280;28752;48.266;7.402;2023-08-31T00:31:45;98970.41;;;16.26;82.18
43147;BME280;28752;48.266;7.402;2023-08-31T00:34:13;98962.59;;;16.24;81.71
43147;BME280;28752;48.266;7.402;2023-08-31T00:36:40;98965.91;;;16.26;81.58
43147;BME280;28752;48.266;7.402;2023-08-31T00:39:05;98969.78;;;16.24;82.19
43147;BME280;28752;48.266;7.402;2023-08-31T00:41:31;98972.69;;;16.29;81.81
43147;BME280;28752;48.266;7.402;2023-08-31T00:43:57;98967.34;;;16.29;81.39
43147;BME280;28752;48.266;7.402;2023-08-31T00:46:23;98977.66;;;16.32;81.21
43147;BME280;28752;48.266;7.402;2023-08-31T00:48:48;98968.03;;;16.38;81.53
43147;BME280;28752;48.266;7.402;2023-08-31T00:51:14;98962.28;;;16.34;81.78
43147;BME280;28752;48.266;7.402;2023-08-31T00:53:39;98966.84;;;16.40;81.96
43147;BME280;28752;48.266;7.402;2023-08-31T00:56:05;98964.78;;;16.42;81.75
43147;BME280;28752;48.266;7.402;2023-08-31T00:58:30;98965.44;;;16.44;82.06
43147;BME280;28752;48.266;7.402;2023-08-31T01:01:02;98971.78;;;16.43;82.14
43147;BME280;28752;48.266;7.402;2023-08-31T01:04:25;98974.47;;;16.43;82.15
43147;BME280;28752;48.266;7.402;2023-08-31T01:14:19;98979.34;;;16.40;82.59
43147;BME280;28752;48.266;7.402;2023-08-31T01:16:49;98979.50;;;16.31;82.44
43147;BME280;28752;48.266;7.402;2023-08-31T01:19:45;98982.03;;;16.40;81.80
43147;BME280;28752;48.266;7.402;2023-08-31T01:24:58;98966.34;;;16.30;82.89
43147;BME280;28752;48.266;7.402;2023-08-31T01:27:26;98980.19;;;16.40;83.00
43147;BME280;28752;48.266;7.402;2023-08-31T01:29:54;98992.72;;;16.40;82.95
43147;BME280;28752;48.266;7.402;2023-08-31T01:32:19;98992.16;;;16.44;82.61
43147;BME280;28752;48.266;7.402;2023-08-31T01:34:45;98982.09;;;16.46;82.96
43147;BME280;28752;48.266;7.402;2023-08-31T01:37:15;98982.47;;;16.43;83.05
43147;BME280;28752;48.266;7.402;2023-08-31T01:39:58;98982.28;;;16.45;82.85
43147;BME280;28752;48.266;7.402;2023-08-31T01:42:29;98983.75;;;16.47;83.05
43147;BME280;28752;48.266;7.402;2023-08-31T01:44:56;98973.44;;;16.44;83.23
43147;BME280;28752;48.266;7.402;2023-08-31T01:47:23;98976.53;;;16.48;83.44
43147;BME280;28752;48.266;7.402;2023-08-31T01:49:50;98985.19;;;16.50;83.68
43147;BME280;28752;48.266;7.402;2023-08-31T01:52:15;98980.19;;;16.40;83.87
43147;BME280;28752;48.266;7.402;2023-08-31T01:54:41;98979.00;;;16.43;83.82
43147;BME280;28752;48.266;7.402;2023-08-31T01:57:06;98981.81;;;16.41;83.92
43147;BME280;28752;48.266;7.402;2023-08-31T01:59:33;98988.41;;;16.39;83.32
43147;BME280;28752;48.266;7.402;2023-08-31T02:01:58;99004.81;;;16.36;82.90
43147;BME280;28752;48.266;7.402;2023-08-31T02:04:24;99004.63;;;16.37;83.18
43147;BME280;28752;48.266;7.402;2023-08-31T02:06:49;98984.41;;;16.28;83.52
43147;BME280;28752;48.266;7.402;2023-08-31T02:09:14;99006.91;;;16.40;83.88
43147;BME280;28752;48.266;7.402;2023-08-31T02:11:40;99007.34;;;16.44;84.08
43147;BME280;28752;48.266;7.402;2023-08-31T02:14:05;99006.94;;;16.47;84.09
43147;BME280;28752;48.266;7.402;2023-08-31T02:16:32;99010.47;;;16.47;84.56
43147;BME280;28752;48.266;7.402;2023-08-31T02:18:58;99011.47;;;16.46;84.87
43147;BME280;28752;48.266;7.402;2023-08-31T02:21:24;99007.59;;;16.49;84.49
43147;BME280;28752;48.266;7.402;2023-08-31T02:23:49;99009.44;;;16.48;84.66
43147;BME280;28752;48.266;7.402;2023-08-31T02:26:15;99008.63;;;16.48;84.66
43147;BME280;28752;48.266;7.402;2023-08-31T02:28:40;99008.81;;;16.46;85.26
43147;BME280;28752;48.266;7.402;2023-08-31T02:31:05;99010.47;;;16.47;85.11
43147;BME280;28752;48.266;7.402;2023-08-31T02:33:31;99015.84;;;16.54;84.79
43147;BME280;28752;48.266;7.402;2023-08-31T02:35:56;99027.56;;;16.53;84.87
43147;BME280;28752;48.266;7.402;2023-08-31T02:38:22;99026.50;;;16.47;84.64
43147;BME280;28752;48.266;7.402;2023-08-31T02:40:47;99015.19;;;16.24;84.09
43147;BME280;28752;48.266;7.402;2023-08-31T02:43:14;99028.66;;;16.37;83.42
43147;BME280;28752;48.266;7.402;2023-08-31T02:45:39;99027.16;;;16.28;83.50
43147;BME280;28752;48.266;7.402;2023-08-31T02:48:07;99026.13;;;16.29;83.38
43147;BME280;28752;48.266;7.402;2023-08-31T02:50:33;99022.72;;;16.13;83.53
43147;BME280;28752;48.266;7.402;2023-08-31T02:52:59;99025.00;;;16.16;83.32
43147;BME280;28752;48.266;7.402;2023-08-31T02:55:24;99027.16;;;16.06;83.66
43147;BME280;28752;48.266;7.402;2023-08-31T02:57:49;99026.41;;;16.12;83.80
43147;BME280;28752;48.266;7.402;2023-08-31T03:00:15;99028.44;;;16.10;83.94
43147;BME280;28752;48.266;7.402;2023-08-31T03:02:41;99025.75;;;16.10;84.12
43147;BME280;28752;48.266;7.402;2023-08-31T03:05:10;99028.56;;;16.02;84.30
43147;BME280;28752;48.266;7.402;2023-08-31T03:07:46;99034.16;;;16.07;84.44
43147;BME280;28752;48.266;7.402;2023-08-31T03:10:12;99026.84;;;15.94;85.18
43147;BME280;28752;48.266;7.402;2023-08-31T03:12:37;99026.28;;;15.99;84.45
43147;BME280;28752;48.266;7.402;2023-08-31T03:15:04;99025.06;;;16.02;84.55
43147;BME280;28752;48.266;7.402;2023-08-31T03:17:30;99032.25;;;16.01;84.61
43147;BME280;28752;48.266;7.402;2023-08-31T03:19:56;99032.63;;;15.98;84.56
43147;BME280;28752;48.266;7.402;2023-08-31T03:22:21;99046.19;;;15.96;84.67
43147;BME280;28752;48.266;7.402;2023-08-31T03:24:46;99043.06;;;15.93;84.90
43147;BME280;28752;48.266;7.402;2023-08-31T03:27:12;99042.34;;;15.84;85.09
43147;BME280;28752;48.266;7.402;2023-08-31T03:29:37;99042.22;;;15.92;84.95
43147;BME280;28752;48.266;7.402;2023-08-31T03:32:04;99047.38;;;15.94;85.17
43147;BME280;28752;48.266;7.402;2023-08-31T03:34:30;99039.88;;;16.04;84.70
43147;BME280;28752;48.266;7.402;2023-08-31T03:36:57;99043.84;;;16.08;84.92
43147;BME280;28752;48.266;7.402;2023-08-31T03:39:23;99040.13;;;16.09;84.71
43147;BME280;28752;48.266;7.402;2023-08-31T03:41:49;99044.06;;;16.13;84.13
43147;BME280;28752;48.266;7.402;2023-08-31T03:44:14;99043.06;;;16.14;84.04
43147;BME280;28752;48.266;7.402;2023-08-31T03:46:39;99042.88;;;16.16;83.96
43147;BME280;28752;48.266;7.402;2023-08-31T03:49:05;99044.25;;;16.12;83.55
43147;BME280;28752;48.266;7.402;2023-08-31T03:51:30;99033.63;;;15.97;84.30
43147;BME280;28752;48.266;7.402;2023-08-31T03:53:55;99039.16;;;15.95;84.86
43147;BME280;28752;48.266;7.402;2023-08-31T03:56:22;99038.59;;;16.00;84.62
43147;BME280;28752;48.266;7.402;2023-08-31T03:58:47;99032.25;;;16.01;84.74
43147;BME280;28752;48.266;7.402;2023-08-31T04:01:13;99043.06;;;15.93;84.95
43147;BME280;28752;48.266;7.402;2023-08-31T04:03:39;99049.03;;;15.95;84.32
43147;BME280;28752;48.266;7.402;2023-08-31T04:06:04;99051.94;;;15.78;83.14
43147;BME280;28752;48.266;7.402;2023-08-31T04:08:30;99057.94;;;15.80;81.84
43147;BME280;28752;48.266;7.402;2023-08-31T04:10:55;99055.28;;;15.80;81.41
43147;BME280;28752;48.266;7.402;2023-08-31T04:13:21;99048.34;;;15.71;81.01
43147;BME280;28752;48.266;7.402;2023-08-31T04:15:47;99057.94;;;15.66;81.38
43147;BME280;28752;48.266;7.402;2023-08-31T04:18:12;99067.97;;;15.63;81.37
43147;BME280;28752;48.266;7.402;2023-08-31T04:20:51;99062.66;;;15.49;81.60
43147;BME280;28752;48.266;7.402;2023-08-31T04:23:20;99063.50;;;15.49;81.44
43147;BME280;28752;48.266;7.402;2023-08-31T04:25:47;99062.81;;;15.47;81.85
43147;BME280;28752;48.266;7.402;2023-08-31T04:28:13;99066.91;;;15.43;82.23
43147;BME280;28752;48.266;7.402;2023-08-31T04:30:41;99065.25;;;15.42;82.35
43147;BME280;28752;48.266;7.402;2023-08-31T04:33:07;99073.81;;;15.37;82.21
43147;BME280;28752;48.266;7.402;2023-08-31T04:35:33;99077.84;;;15.18;82.81
43147;BME280;28752;48.266;7.402;2023-08-31T04:37:58;99079.31;;;15.21;82.90
43147;BME280;28752;48.266;7.402;2023-08-31T04:40:23;99093.78;;;15.26;83.65
43147;BME280;28752;48.266;7.402;2023-08-31T04:42:51;99098.28;;;15.26;83.85
43147;BME280;28752;48.266;7.402;2023-08-31T04:45:17;99092.94;;;15.26;84.15
43147;BME280;28752;48.266;7.402;2023-08-31T04:47:42;99100.41;;;15.31;84.37
43147;BME280;28752;48.266;7.402;2023-08-31T04:50:08;99105.38;;;15.34;84.80
43147;BME280;28752;48.266;7.402;2023-08-31T04:52:34;99106.63;;;15.38;85.06
43147;BME280;28752;48.266;7.402;2023-08-31T04:55:02;99117.13;;;15.39;85.27
43147;BME280;28752;48.266;7.402;2023-08-31T04:57:29;99105.38;;;15.34;84.94
43147;BME280;28752;48.266;7.402;2023-08-31T04:59:54;99118.69;;;15.34;84.94
43147;BME280;28752;48.266;7.402;2023-08-31T05:02:20;99119.03;;;15.45;84.43
43147;BME280;28752;48.266;7.402;2023-08-31T05:04:45;99118.41;;;15.43;84.20
43147;BME280;28752;48.266;7.402;2023-08-31T05:07:11;99118.84;;;15.47;83.89
43147;BME280;28752;48.266;7.402;2023-08-31T05:09:40;99124.84;;;15.49;83.91
43147;BME280;28752;48.266;7.402;2023-08-31T05:12:05;99127.97;;;15.53;83.94
43147;BME280;28752;48.266;7.402;2023-08-31T05:14:32;99122.56;;;15.61;84.49
43147;BME280;28752;48.266;7.402;2023-08-31T05:17:00;99128.50;;;15.63;84.17
43147;BME280;28752;48.266;7.402;2023-08-31T05:19:25;99125.22;;;15.61;84.24
43147;BME280;28752;48.266;7.402;2023-08-31T05:21:51;99132.38;;;15.75;83.76
43147;BME280;28752;48.266;7.402;2023-08-31T05:24:16;99128.69;;;15.76;83.39
43147;BME280;28752;48.266;7.402;2023-08-31T05:26:41;99138.03;;;15.80;83.63
43147;BME280;28752;48.266;7.402;2023-08-31T05:29:07;99141.56;;;15.88;83.56
43147;BME280;28752;48.266;7.402;2023-08-31T05:31:32;99134.31;;;15.81;83.35
43147;BME280;28752;48.266;7.402;2023-08-31T05:33:58;99130.00;;;15.66;84.04
43147;BME280;28752;48.266;7.402;2023-08-31T05:36:23;99137.25;;;15.72;83.48
43147;BME280;28752;48.266;7.402;2023-08-31T05:38:50;99134.59;;;15.72;83.51
43147;BME280;28752;48.266;7.402;2023-08-31T05:41:16;99148.94;;;15.86;83.39
43147;BME280;28752;48.266;7.402;2023-08-31T05:43:41;99147.09;;;15.86;83.03
43147;BME280;28752;48.266;7.402;2023-08-31T05:46:07;99156.66;;;15.95;82.71
43147;BME280;28752;48.266;7.402;2023-08-31T05:48:33;99165.00;;;16.07;82.56
43147;BME280;28752;48.266;7.402;2023-08-31T05:50:59;99162.25;;;16.15;82.08
43147;BME280;28752;48.266;7.402;2023-08-31T05:53:24;99162.06;;;16.17;82.02
43147;BME280;28752;48.266;7.402;2023-08-31T05:55:49;99157.34;;;16.19;81.50
43147;BME280;28752;48.266;7.402;2023-08-31T05:58:15;99152.91;;;16.26;81.19
43147;BME280;28752;48.266;7.402;2023-08-31T06:00:40;99164.16;;;16.22;80.50
43147;BME280;28752;48.266;7.402;2023-08-31T06:03:05;99172.44;;;16.48;79.79
43147;BME280;28752;48.266;7.402;2023-08-31T06:05:32;99162.78;;;16.69;78.94
43147;BME280;28752;48.266;7.402;2023-08-31T06:07:58;99157.03;;;16.94;78.18
43147;BME280;28752;48.266;7.402;2023-08-31T06:10:24;99149.31;;;16.84;77.64
43147;BME280;28752;48.266;7.402;2023-08-31T06:12:50;99154.34;;;16.94;77.43
43147;BME280;28752;48.266;7.402;2023-08-31T06:15:16;99155.34;;;17.14;77.26
43147;BME280;28752;48.266;7.402;2023-08-31T06:17:42;99166.59;;;17.38;76.58
43147;BME280;28752;48.266;7.402;2023-08-31T06:20:08;99158.13;;;17.69;76.14
43147;BME280;28752;48.266;7.402;2023-08-31T06:22:34;99163.75;;;18.43;73.96
43147;BME280;28752;48.266;7.402;2023-08-31T06:24:59;99175.75;;;19.34;70.55
43147;BME280;28752;48.266;7.402;2023-08-31T06:27:25;99178.06;;;20.41;67.28
43147;BME280;28752;48.266;7.402;2023-08-31T06:29:50;99177.66;;;21.70;62.61
43147;BME280;28752;48.266;7.402;2023-08-31T06:32:16;99179.38;;;22.13;60.88
43147;BME280;28752;48.266;7.402;2023-08-31T06:34:42;99184.72;;;22.50;59.19
43147;BME280;28752;48.266;7.402;2023-08-31T06:37:07;99185.97;;;22.17;59.68
43147;BME280;28752;48.266;7.402;2023-08-31T06:39:32;99184.78;;;22.32;58.99
43147;BME280;28752;48.266;7.402;2023-08-31T06:41:58;99192.50;;;23.48;56.96
43147;BME280;28752;48.266;7.402;2023-08-31T06:44:24;99189.97;;;24.80;52.34
43147;BME280;28752;48.266;7.402;2023-08-31T06:46:49;99200.31;;;25.00;50.83
43147;BME280;28752;48.266;7.402;2023-08-31T06:49:14;99188.00;;;25.66;49.84
43147;BME280;28752;48.266;7.402;2023-08-31T06:51:40;99200.25;;;25.46;49.19
43147;BME280;28752;48.266;7.402;2023-08-31T06:54:05;99192.25;;;24.14;52.37
43147;BME280;28752;48.266;7.402;2023-08-31T06:56:34;99191.63;;;22.88;55.09
43147;BME280;28752;48.266;7.402;2023-08-31T06:58:59;99185.97;;;22.17;57.28
43147;BME280;28752;48.266;7.402;2023-08-31T07:01:25;99200.94;;;22.62;56.92
43147;BME280;28752;48.266;7.402;2023-08-31T07:03:52;99199.19;;;23.10;56.29
43147;BME280;28752;48.266;7.402;2023-08-31T07:06:17;99195.53;;;23.87;53.91
43147;BME280;28752;48.266;7.402;2023-08-31T07:08:43;99203.63;;;25.03;51.33
43147;BME280;28752;48.266;7.402;2023-08-31T07:11:10;99201.63;;;26.10;48.29
43147;BME280;28752;48.266;7.402;2023-08-31T07:13:35;99203.03;;;26.67;46.33
43147;BME280;28752;48.266;7.402;2023-08-31T07:16:01;99202.72;;;26.64;46.49
43147;BME280;28752;48.266;7.402;2023-08-31T07:18:26;99184.03;;;26.67;46.16
43147;BME280;28752;48.266;7.402;2023-08-31T07:20:51;99199.28;;;26.73;46.71
43147;BME280;28752;48.266;7.402;2023-08-31T07:23:16;99189.16;;;25.70;48.76
43147;BME280;28752;48.266;7.402;2023-08-31T07:25:42;99206.31;;;25.36;49.63
43147;BME280;28752;48.266;7.402;2023-08-31T07:28:07;99201.53;;;25.83;49.58
43147;BME280;28752;48.266;7.402;2023-08-31T07:30:33;99203.66;;;26.74;47.26
43147;BME280;28752;48.266;7.402;2023-08-31T07:32:58;99203.72;;;27.17;46.13
43147;BME280;28752;48.266;7.402;2023-08-31T07:35:27;99207.00;;;26.82;45.85
43147;BME280;28752;48.266;7.402;2023-08-31T07:37:53;99208.19;;;26.96;46.59
43147;BME280;28752;48.266;7.402;2023-08-31T07:40:18;99200.81;;;25.70;46.19
43147;BME280;28752;48.266;7.402;2023-08-31T07:42:43;99205.56;;;25.41;47.44
43147;BME280;28752;48.266;7.402;2023-08-31T07:45:09;99211.88;;;25.47;46.99
43147;BME280;28752;48.266;7.402;2023-08-31T07:47:34;99213.03;;;25.00;48.25
43147;BME280;28752;48.266;7.402;2023-08-31T07:50:00;99210.13;;;24.44;48.26
43147;BME280;28752;48.266;7.402;2023-08-31T07:52:25;99209.09;;;24.04;49.90
43147;BME280;28752;48.266;7.402;2023-08-31T07:54:51;99216.34;;;24.16;50.20
43147;BME280;28752;48.266;7.402;2023-08-31T07:57:16;99212.56;;;24.28;50.76
43147;BME280;28752;48.266;7.402;2023-08-31T07:59:41;99219.31;;;24.43;51.41
43147;BME280;28752;48.266;7.402;2023-08-31T08:02:07;99213.53;;;24.22;50.56
43147;BME280;28752;48.266;7.402;2023-08-31T08:04:32;99225.69;;;24.37;50.69
43147;BME280;28752;48.266;7.402;2023-08-31T08:06:57;99233.81;;;24.37;49.63
43147;BME280;28752;48.266;7.402;2023-08-31T08:09:23;99237.06;;;24.51;49.34
43147;BME280;28752;48.266;7.402;2023-08-31T08:11:48;99230.34;;;24.53;49.18
43147;BME280;28752;48.266;7.402;2023-08-31T08:14:13;99228.63;;;24.35;49.99
43147;BME280;28752;48.266;7.402;2023-08-31T08:16:41;99234.19;;;24.28;48.76
43147;BME280;28752;48.266;7.402;2023-08-31T08:19:07;99243.28;;;24.51;46.98
43147;BME280;28752;48.266;7.402;2023-08-31T08:21:32;99241.16;;;24.24;48.07
43147;BME280;28752;48.266;7.402;2023-08-31T08:23:58;99239.66;;;24.45;48.07
43147;BME280;28752;48.266;7.402;2023-08-31T08:26:23;99242.88;;;24.71;47.36
43147;BME280;28752;48.266;7.402;2023-08-31T08:28:48;99233.56;;;25.13;47.67
43147;BME280;28752;48.266;7.402;2023-08-31T08:31:14;99240.03;;;24.95;47.03
43147;BME280;28752;48.266;7.402;2023-08-31T08:33:39;99233.41;;;24.86;48.03
43147;BME280;28752;48.266;7.402;2023-08-31T08:36:05;99249.06;;;24.43;47.57
43147;BME280;28752;48.266;7.402;2023-08-31T08:38:30;99248.41;;;24.36;48.60
43147;BME280;28752;48.266;7.402;2023-08-31T08:40:56;99247.28;;;24.60;48.93
43147;BME280;28752;48.266;7.402;2023-08-31T08:43:25;99246.94;;;24.16;48.09
43147;BME280;28752;48.266;7.402;2023-08-31T08:45:53;99249.88;;;24.15;48.73
43147;BME280;28752;48.266;7.402;2023-08-31T08:48:20;99251.09;;;24.07;49.75
43147;BME280;28752;48.266;7.402;2023-08-31T08:50:45;99237.63;;;24.24;49.87
43147;BME280;28752;48.266;7.402;2023-08-31T08:53:11;99240.59;;;24.51;46.98
43147;BME280;28752;48.266;7.402;2023-08-31T08:55:43;99248.31;;;24.88;46.28
43147;BME280;28752;48.266;7.402;2023-08-31T08:58:08;99241.44;;;24.97;44.55
43147;BME280;28752;48.266;7.402;2023-08-31T09:00:35;99244.66;;;25.28;44.38
43147;BME280;28752;48.266;7.402;2023-08-31T09:03:01;99246.44;;;25.74;45.60
43147;BME280;28752;48.266;7.402;2023-08-31T09:05:31;99242.81;;;25.68;43.68
43147;BME280;28752;48.266;7.402;2023-08-31T09:08:05;99247.63;;;25.44;43.95
43147;BME280;28752;48.266;7.402;2023-08-31T09:10:45;99241.75;;;25.52;42.84
43147;BME280;28752;48.266;7.402;2023-08-31T09:13:11;99242.00;;;25.50;41.67
43147;BME280;28752;48.266;7.402;2023-08-31T09:15:41;99250.09;;;25.84;43.10
43147;BME280;28752;48.266;7.402;2023-08-31T09:18:07;99246.47;;;25.40;41.74
43147;BME280;28752;48.266;7.402;2023-08-31T09:20:42;99256.75;;;25.38;42.51
43147;BME280;28752;48.266;7.402;2023-08-31T09:23:12;99249.66;;;25.36;41.28
43147;BME280;28752;48.266;7.402;2023-08-31T09:28:11;99258.59;;;25.03;42.85
43147;BME280;28752;48.266;7.402;2023-08-31T09:30:37;99257.28;;;25.06;43.93
43147;BME280;28752;48.266;7.402;2023-08-31T09:33:23;99265.16;;;24.90;42.20
43147;BME280;28752;48.266;7.402;2023-08-31T09:35:52;99260.56;;;24.91;41.40
43147;BME280;28752;48.266;7.402;2023-08-31T09:38:18;99258.38;;;24.47;40.76
43147;BME280;28752;48.266;7.402;2023-08-31T09:40:44;99262.84;;;24.01;42.31
43147;BME280;28752;48.266;7.402;2023-08-31T09:43:09;99261.53;;;24.15;43.44
43147;BME280;28752;48.266;7.402;2023-08-31T09:45:35;99256.84;;;23.99;43.74
43147;BME280;28752;48.266;7.402;2023-08-31T09:48:03;99265.41;;;24.19;43.45
43147;BME280;28752;48.266;7.402;2023-08-31T09:50:30;99252.09;;;24.29;43.13
43147;BME280;28752;48.266;7.402;2023-08-31T09:53:04;99266.03;;;24.38;41.20
43147;BME280;28752;48.266;7.402;2023-08-31T09:55:31;99261.19;;;24.11;40.55
43147;BME280;28752;48.266;7.402;2023-08-31T09:58:01;99264.56;;;24.59;41.53
43147;BME280;28752;48.266;7.402;2023-08-31T10:00:29;99262.44;;;24.90;42.61
43147;BME280;28752;48.266;7.402;2023-08-31T10:02:57;99270.34;;;25.26;40.80
43147;BME280;28752;48.266;7.402;2023-08-31T10:05:24;99266.59;;;25.44;41.29
43147;BME280;28752;48.266;7.402;2023-08-31T10:07:50;99253.59;;;25.46;39.63
43147;BME280;28752;48.266;7.402;2023-08-31T10:10:16;99261.94;;;25.78;40.53
43147;BME280;28752;48.266;7.402;2023-08-31T10:12:41;99251.19;;;25.66;40.13
43147;BME280;28752;48.266;7.402;2023-08-31T10:15:08;99245.81;;;25.49;39.32
43147;BME280;28752;48.266;7.402;2023-08-31T10:17:35;99253.41;;;25.69;39.38
43147;BME280;28752;48.266;7.402;2023-08-31T10:20:01;99250.41;;;25.32;39.66
43147;BME280;28752;48.266;7.402;2023-08-31T10:22:28;99243.91;;;25.50;39.81
43147;BME280;28752;48.266;7.402;2023-08-31T10:25:00;99243.97;;;25.55;40.82
43147;BME280;28752;48.266;7.402;2023-08-31T10:27:27;99258.47;;;25.44;40.58
43147;BME280;28752;48.266;7.402;2023-08-31T10:29:53;99252.75;;;24.94;39.78
43147;BME280;28752;48.266;7.402;2023-08-31T10:32:19;99257.13;;;25.12;39.77
43147;BME280;28752;48.266;7.402;2023-08-31T10:35:03;99245.28;;;24.85;40.38
43147;BME280;28752;48.266;7.402;2023-08-31T10:37:29;99246.03;;;24.97;40.20
43147;BME280;28752;48.266;7.402;2023-08-31T10:40:09;99248.50;;;25.32;41.69
43147;BME280;28752;48.266;7.402;2023-08-31T10:42:46;99252.03;;;25.50;41.37
43147;BME280;28752;48.266;7.402;2023-08-31T10:45:13;99249.91;;;25.52;40.27
43147;BME280;28752;48.266;7.402;2023-08-31T10:47:42;99259.53;;;25.43;40.15
43147;BME280;28752;48.266;7.402;2023-08-31T10:50:22;99262.88;;;25.16;40.16
43147;BME280;28752;48.266;7.402;2023-08-31T10:52:48;99252.88;;;24.71;41.38
43147;BME280;28752;48.266;7.402;2023-08-31T10:55:13;99253.88;;;24.64;43.11
43147;BME280;28752;48.266;7.402;2023-08-31T10:57:40;99252.00;;;24.82;43.10
43147;BME280;28752;48.266;7.402;2023-08-31T11:00:06;99241.84;;;25.23;42.17
43147;BME280;28752;48.266;7.402;2023-08-31T11:02:41;99250.28;;;25.10;41.67
43147;BME280;28752;48.266;7.402;2023-08-31T11:05:10;99249.22;;;25.28;41.71
43147;BME280;28752;48.266;7.402;2023-08-31T11:07:37;99245.72;;;25.44;40.56
43147;BME280;28752;48.266;7.402;2023-08-31T11:12:36;99236.44;;;25.40;40.39
43147;BME280;28752;48.266;7.402;2023-08-31T11:15:02;99236.22;;;25.42;40.96
43147;BME280;28752;48.266;7.402;2023-08-31T11:17:29;99231.13;;;25.11;40.25
43147;BME280;28752;48.266;7.402;2023-08-31T11:19:56;99240.50;;;25.77;40.60
43147;BME280;28752;48.266;7.402;2023-08-31T11:22:21;99224.84;;;25.84;40.16
43147;BME280;28752;48.266;7.402;2023-08-31T11:24:47;99227.91;;;26.32;39.17
43147;BME280;28752;48.266;7.402;2023-08-31T11:27:13;99223.44;;;26.48;38.45
43147;BME280;28752;48.266;7.402;2023-08-31T11:29:43;99220.22;;;26.51;38.37
43147;BME280;28752;48.266;7.402;2023-08-31T11:32:08;99227.09;;;26.58;36.88
43147;BME280;28752;48.266;7.402;2023-08-31T11:34:34;99227.72;;;26.66;38.40
43147;BME280;28752;48.266;7.402;2023-08-31T11:37:02;99222.25;;;26.60;38.12
43147;BME280;28752;48.266;7.402;2023-08-31T11:39:27;99222.44;;;26.54;38.32
43147;BME280;28752;48.266;7.402;2023-08-31T11:41:53;99243.88;;;26.28;38.59
43147;BME280;28752;48.266;7.402;2023-08-31T11:44:19;99223.53;;;25.86;37.84
43147;BME280;28752;48.266;7.402;2023-08-31T11:46:46;99224.44;;;25.53;38.75
43147;BME280;28752;48.266;7.402;2023-08-31T11:49:16;99218.88;;;25.82;39.36
43147;BME280;28752;48.266;7.402;2023-08-31T11:51:42;99221.56;;;25.99;40.36
43147;BME280;28752;48.266;7.402;2023-08-31T11:54:10;99233.94;;;25.73;39.99
43147;BME280;28752;48.266;7.402;2023-08-31T11:56:43;99222.66;;;25.81;39.76
43147;BME280;28752;48.266;7.402;2023-08-31T11:59:12;99228.00;;;25.76;39.50
43147;BME280;28752;48.266;7.402;2023-08-31T12:01:42;99213.59;;;25.53;39.33
43147;BME280;28752;48.266;7.402;2023-08-31T12:04:15;99218.72;;;25.71;39.02
43147;BME280;28752;48.266;7.402;2023-08-31T12:06:42;99231.97;;;25.68;39.92
43147;BME280;28752;48.266;7.402;2023-08-31T12:09:11;99221.97;;;25.91;40.32
43147;BME280;28752;48.266;7.402;2023-08-31T12:11:36;99210.84;;;25.70;39.13
43147;BME280;28752;48.266;7.402;2023-08-31T12:14:03;99211.41;;;25.72;40.29
43147;BME280;28752;48.266;7.402;2023-08-31T12:16:35;99216.59;;;25.96;40.89
43147;BME280;28752;48.266;7.402;2023-08-31T12:19:04;99214.06;;;26.06;40.30
43147;BME280;28752;48.266;7.402;2023-08-31T12:21:33;99208.06;;;26.04;39.53
43147;BME280;28752;48.266;7.402;2023-08-31T12:23:59;99218.34;;;26.24;39.79
43147;BME280;28752;48.266;7.402;2023-08-31T12:26:28;99215.66;;;25.85;38.38
43147;BME280;28752;48.266;7.402;2023-08-31T12:28:53;99223.59;;;25.69;39.64
43147;BME280;28752;48.266;7.402;2023-08-31T12:31:18;99211.78;;;25.81;39.68
43147;BME280;28752;48.266;7.402;2023-08-31T12:33:44;99222.13;;;25.84;39.61
43147;BME280;28752;48.266;7.402;2023-08-31T12:36:09;99219.56;;;25.94;38.79
43147;BME280;28752;48.266;7.402;2023-08-31T12:38:34;99226.13;;;26.20;39.15
43147;BME280;28752;48.266;7.402;2023-08-31T12:41:00;99222.66;;;26.25;38.81
43147;BME280;28752;48.266;7.402;2023-08-31T12:43:27;99228.25;;;26.13;39.18
43147;BME280;28752;48.266;7.402;2023-08-31T12:45:57;99214.66;;;25.91;39.17
43147;BME280;28752;48.266;7.402;2023-08-31T12:48:23;99215.50;;;25.75;39.19
43147;BME280;28752;48.266;7.402;2023-08-31T12:50:48;99219.63;;;25.77;39.26
43147;BME280;28752;48.266;7.402;2023-08-31T12:53:14;99219.69;;;25.82;39.77
43147;BME280;28752;48.266;7.402;2023-08-31T12:55:39;99223.00;;;25.67;39.49
43147;BME280;28752;48.266;7.402;2023-08-31T12:58:05;99218.72;;;25.49;39.05
43147;BME280;28752;48.266;7.402;2023-08-31T13:00:30;99209.97;;;25.86;39.59
43147;BME280;28752;48.266;7.402;2023-08-31T13:02:55;99216.69;;;26.01;39.56
43147;BME280;28752;48.266;7.402;2023-08-31T13:05:21;99210.03;;;25.92;39.77
43147;BME280;28752;48.266;7.402;2023-08-31T13:07:46;99208.16;;;26.14;39.45
43147;BME280;28752;48.266;7.402;2023-08-31T13:10:11;99213.06;;;25.95;37.38
43147;BME280;28752;48.266;7.402;2023-08-31T13:12:37;99213.34;;;26.16;37.66